Time;durP1;ratioP1;P1;durP2;ratioP2;P2;SDS_P1;SDS_P2;PMS_P1;PMS_P2;Temp;Humidity;BMP_temperature;BMP_pressure;BME280_temperature;BME280_humidity;BME280_pressure;Samples;Min_cycle;Max_cycle;Signal;HPM_P1;HPM_P2
2021/09/29 00:01:01;;;;;;;5.95;4.40;;;;;;;13.09;100.00;96931.56;5054267;28;20136;-59
2021/09/29 00:03:47;;;;;;;5.97;4.18;;;;;;;13.28;100.00;96936.09;5053763;28;20127;-61
2021/09/29 00:06:32;;;;;;;7.68;4.45;;;;;;;13.40;100.00;96938.59;5034441;28;20056;-62
2021/09/29 00:09:18;;;;;;;10.18;4.75;;;;;;;13.53;100.00;96950.09;5035250;28;20133;-61
2021/09/29 00:12:04;;;;;;;8.02;4.88;;;;;;;13.44;100.00;96950.41;5050409;28;20052;-60
2021/09/29 00:14:50;;;;;;;7.05;4.88;;;;;;;13.35;100.00;96958.97;5053974;28;20114;-62
2021/09/29 00:17:37;;;;;;;8.88;4.88;;;;;;;13.27;100.00;96954.56;5038166;28;20041;-62
2021/09/29 00:20:23;;;;;;;7.22;4.70;;;;;;;13.31;100.00;96941.66;5048389;28;20449;-61
2021/09/29 00:23:08;;;;;;;8.13;5.00;;;;;;;13.26;100.00;96946.69;5044793;28;20121;-62
2021/09/29 00:25:54;;;;;;;8.75;4.70;;;;;;;13.25;100.00;96954.13;5051960;28;20032;-62
2021/09/29 00:28:40;;;;;;;10.80;4.55;;;;;;;13.22;100.00;96957.66;5052859;28;20115;-61
2021/09/29 00:31:33;;;;;;;6.05;4.53;;;;;;;13.13;100.00;96952.44;5047972;28;20133;-63
2021/09/29 00:34:39;;;;;;;8.15;4.75;;;;;;;13.17;100.00;96953.25;5049242;28;20135;-62
2021/09/29 00:37:25;;;;;;;7.45;4.68;;;;;;;13.24;100.00;96949.03;5052397;28;20074;-63
2021/09/29 00:40:12;;;;;;;7.20;4.22;;;;;;;13.33;100.00;96953.06;5052178;28;20075;-61
2021/09/29 00:42:57;;;;;;;8.80;4.43;;;;;;;13.31;100.00;96963.66;5057165;28;20040;-62
2021/09/29 00:45:43;;;;;;;8.32;4.70;;;;;;;13.26;100.00;96961.22;5057994;28;20044;-63
2021/09/29 00:48:29;;;;;;;9.02;4.60;;;;;;;13.23;100.00;96956.47;5056905;28;20147;-61
2021/09/29 00:51:15;;;;;;;6.80;4.50;;;;;;;13.38;100.00;96952.72;5052130;28;20501;-62
2021/09/29 00:54:01;;;;;;;7.45;4.72;;;;;;;13.47;100.00;96960.66;5056884;28;20051;-63
2021/09/29 00:56:47;;;;;;;6.50;4.43;;;;;;;13.50;100.00;96961.84;5055789;28;20111;-62
2021/09/29 00:59:33;;;;;;;5.97;4.25;;;;;;;13.47;100.00;96960.66;5054143;28;20688;-63
2021/09/29 01:02:20;;;;;;;7.78;4.50;;;;;;;13.38;100.00;96965.69;5050180;28;20047;-63
2021/09/29 01:05:06;;;;;;;8.07;4.50;;;;;;;13.31;100.00;96971.91;5052230;28;20044;-62
2021/09/29 01:08:09;;;;;;;8.15;4.32;;;;;;;13.49;100.00;96969.34;5057052;28;20049;-63
2021/09/29 01:11:05;;;;;;;5.95;4.15;;;;;;;13.64;100.00;96967.50;5055404;28;20045;-60
2021/09/29 01:14:03;;;;;;;9.65;4.70;;;;;;;13.65;100.00;96976.53;5046802;28;20045;-61
2021/09/29 01:16:52;;;;;;;7.63;4.60;;;;;;;13.69;100.00;96966.34;5046474;28;20123;-63
2021/09/29 01:19:57;;;;;;;10.33;5.00;;;;;;;13.45;100.00;96946.50;5051935;28;20059;-62
2021/09/29 01:23:10;;;;;;;8.90;5.22;;;;;;;12.69;100.00;96931.13;5047024;28;20131;-62
2021/09/29 01:25:58;;;;;;;9.75;6.05;;;;;;;12.42;100.00;96939.47;5053943;28;20043;-63
2021/09/29 01:29:11;;;;;;;12.77;7.82;;;;;;;12.49;100.00;96948.97;5036562;28;20063;-63
2021/09/29 01:31:58;;;;;;;10.98;6.88;;;;;;;12.73;100.00;96942.16;5045742;28;20821;-62
2021/09/29 01:34:45;;;;;;;13.57;6.70;;;;;;;12.88;100.00;96948.66;5055889;28;20508;-60
2021/09/29 01:37:31;;;;;;;11.95;6.65;;;;;;;13.00;100.00;96959.38;5053485;28;20032;-62
2021/09/29 01:40:17;;;;;;;12.55;6.88;;;;;;;12.95;100.00;96954.22;5045443;28;20052;-60
2021/09/29 01:43:03;;;;;;;14.07;7.55;;;;;;;12.89;100.00;96958.47;5046982;28;20053;-60
2021/09/29 01:45:49;;;;;;;13.20;7.15;;;;;;;12.91;100.00;96961.63;5054848;28;20151;-62
2021/09/29 01:49:02;;;;;;;10.80;6.63;;;;;;;13.14;100.00;96965.03;5046876;28;20432;-64
2021/09/29 01:51:50;;;;;;;11.50;6.63;;;;;;;13.20;100.00;96971.78;5047487;28;20047;-64
2021/09/29 01:54:48;;;;;;;10.50;6.38;;;;;;;13.40;100.00;96974.34;5050962;28;20056;-63
2021/09/29 01:57:37;;;;;;;9.20;6.20;;;;;;;13.42;100.00;96968.47;5043209;28;20393;-64
2021/09/29 02:00:23;;;;;;;11.80;6.47;;;;;;;13.53;100.00;96961.09;5058302;28;20498;-62
2021/09/29 02:03:10;;;;;;;12.15;6.82;;;;;;;13.34;100.00;96965.66;5054362;28;20064;-63
2021/09/29 02:05:56;;;;;;;10.88;6.07;;;;;;;13.23;100.00;96978.47;5051604;28;20079;-61
2021/09/29 02:08:42;;;;;;;10.45;6.38;;;;;;;13.24;100.00;96977.31;5048477;28;20040;-61
2021/09/29 02:11:27;;;;;;;12.43;7.55;;;;;;;13.14;100.00;96975.22;5046432;28;20167;-63
2021/09/29 02:14:14;;;;;;;12.32;7.55;;;;;;;13.03;100.00;96977.09;5029419;28;20049;-61
2021/09/29 02:17:00;;;;;;;14.57;8.38;;;;;;;12.92;100.00;96983.25;5028828;28;20043;-63
2021/09/29 02:19:46;;;;;;;10.95;7.55;;;;;;;12.90;100.00;96976.53;5049487;28;20041;-59
2021/09/29 02:22:32;;;;;;;10.80;6.78;;;;;;;13.02;100.00;96987.28;5047999;28;20060;-60
2021/09/29 02:25:18;;;;;;;13.10;7.38;;;;;;;13.03;100.00;96979.84;5044344;28;20045;-61
2021/09/29 02:28:04;;;;;;;13.52;6.88;;;;;;;12.82;100.00;96976.47;5050490;28;20044;-60
2021/09/29 02:30:50;;;;;;;14.20;7.72;;;;;;;12.54;100.00;96985.13;5054697;28;20048;-62
2021/09/29 02:33:35;;;;;;;16.70;9.43;;;;;;;12.48;100.00;96996.81;5051937;28;20067;-60
2021/09/29 02:36:21;;;;;;;17.92;8.82;;;;;;;12.41;100.00;96995.56;5024874;28;20048;-62
2021/09/29 02:39:08;;;;;;;16.05;10.15;;;;;;;12.41;100.00;96998.31;5045552;28;20037;-61
2021/09/29 02:41:53;;;;;;;13.63;8.60;;;;;;;12.49;100.00;97007.44;5048725;28;20074;-62
2021/09/29 02:44:39;;;;;;;15.23;9.02;;;;;;;12.57;100.00;97011.88;5047362;28;20087;-61
2021/09/29 02:47:25;;;;;;;16.30;8.95;;;;;;;12.59;100.00;97020.53;5046155;28;20904;-62
2021/09/29 02:50:10;;;;;;;15.70;8.52;;;;;;;12.50;100.00;97016.47;5041049;28;20472;-60
2021/09/29 02:52:56;;;;;;;13.57;9.18;;;;;;;12.40;100.00;97010.44;5052453;28;20068;-63
2021/09/29 02:55:42;;;;;;;14.23;8.80;;;;;;;12.39;100.00;97016.34;5051954;28;20049;-64
2021/09/29 02:58:28;;;;;;;10.65;7.10;;;;;;;12.49;100.00;97023.13;5041827;28;20040;-63
2021/09/29 03:01:14;;;;;;;16.83;9.18;;;;;;;12.46;100.00;97030.16;5047255;28;20052;-62
2021/09/29 03:03:59;;;;;;;10.75;8.32;;;;;;;12.60;100.00;97035.06;5053334;28;20040;-59
2021/09/29 03:06:45;;;;;;;16.63;9.20;;;;;;;12.54;100.00;97039.28;5036123;28;20087;-60
2021/09/29 03:09:32;;;;;;;14.38;8.48;;;;;;;12.40;100.00;97046.16;5034018;28;20060;-61
2021/09/29 03:12:18;;;;;;;11.63;7.88;;;;;;;12.49;100.00;97037.66;5029682;28;20110;-57
2021/09/29 03:15:04;;;;;;;11.82;7.70;;;;;;;12.67;100.00;97046.13;5045801;28;20525;-60
2021/09/29 03:17:49;;;;;;;11.65;7.35;;;;;;;12.48;100.00;97047.06;5048482;28;20052;-61
2021/09/29 03:20:35;;;;;;;10.95;7.22;;;;;;;12.42;100.00;97049.34;5050484;28;20499;-63
2021/09/29 03:23:21;;;;;;;13.98;7.78;;;;;;;12.43;100.00;97052.88;5041028;28;21470;-61
2021/09/29 03:26:06;;;;;;;12.90;8.25;;;;;;;12.34;100.00;97060.59;5037849;28;20071;-61
2021/09/29 03:28:52;;;;;;;10.55;6.82;;;;;;;12.37;100.00;97065.31;5051253;28;20032;-61
2021/09/29 03:31:38;;;;;;;16.52;7.97;;;;;;;12.21;100.00;97065.50;5048087;28;20045;-65
2021/09/29 03:34:23;;;;;;;10.45;7.45;;;;;;;12.03;100.00;97057.75;5042256;28;20426;-62
2021/09/29 03:37:09;;;;;;;13.32;7.72;;;;;;;12.15;100.00;97062.25;5040511;28;20039;-62
2021/09/29 03:39:55;;;;;;;13.27;8.95;;;;;;;12.10;100.00;97064.50;5035327;28;20451;-62
2021/09/29 03:42:42;;;;;;;11.82;7.30;;;;;;;12.01;100.00;97062.00;5047284;28;20052;-62
2021/09/29 03:45:27;;;;;;;11.60;7.32;;;;;;;12.04;100.00;97053.06;5040558;28;20048;-60
2021/09/29 03:48:13;;;;;;;9.73;6.80;;;;;;;12.10;100.00;97062.59;5042652;28;20489;-61
2021/09/29 03:50:59;;;;;;;11.48;7.75;;;;;;;12.16;100.00;97071.31;5051543;28;20048;-63
2021/09/29 03:53:45;;;;;;;13.15;9.02;;;;;;;12.26;100.00;97058.88;5050588;28;20418;-62
2021/09/29 03:56:30;;;;;;;15.30;8.90;;;;;;;12.28;100.00;97059.31;5041228;28;20052;-61
2021/09/29 03:59:16;;;;;;;14.02;7.95;;;;;;;12.26;100.00;97062.41;5030955;28;20041;-61
2021/09/29 04:02:02;;;;;;;13.15;6.45;;;;;;;12.32;100.00;97057.44;5034070;28;20087;-60
2021/09/29 04:04:48;;;;;;;12.57;6.90;;;;;;;12.39;100.00;97063.81;5051366;28;20481;-63
2021/09/29 04:07:33;;;;;;;10.38;6.18;;;;;;;12.40;100.00;97073.63;5042004;28;20056;-61
2021/09/29 04:10:19;;;;;;;11.77;6.50;;;;;;;12.43;100.00;97069.34;5038832;28;20095;-61
2021/09/29 04:13:06;;;;;;;9.18;6.22;;;;;;;12.46;100.00;97065.88;5040013;28;20078;-61
2021/09/29 04:15:51;;;;;;;10.82;5.90;;;;;;;12.45;100.00;97072.53;5070405;28;20076;-64
2021/09/29 04:18:38;;;;;;;14.38;6.00;;;;;;;12.60;100.00;97073.53;5052682;28;20575;-61
2021/09/29 04:21:24;;;;;;;8.70;6.25;;;;;;;12.59;100.00;97072.72;5035582;28;20671;-61
2021/09/29 04:24:10;;;;;;;9.93;5.72;;;;;;;12.63;100.00;97065.31;5043855;28;20120;-61
2021/09/29 04:26:56;;;;;;;10.23;5.53;;;;;;;12.62;100.00;97069.25;5055784;28;20127;-61
2021/09/29 04:29:42;;;;;;;10.85;5.53;;;;;;;12.60;100.00;97074.34;5043701;28;20730;-61
2021/09/29 04:32:28;;;;;;;9.63;5.80;;;;;;;12.58;100.00;97071.13;5046113;28;20048;-62
2021/09/29 04:35:14;;;;;;;7.65;4.40;;;;;;;12.55;100.00;97071.09;5042966;28;20079;-61
2021/09/29 04:37:59;;;;;;;10.88;3.95;;;;;;;12.50;100.00;97068.69;5056472;28;20472;-62
2021/09/29 04:40:45;;;;;;;8.32;3.90;;;;;;;12.48;100.00;97073.72;5054872;28;20159;-62
2021/09/29 04:43:31;;;;;;;8.00;4.53;;;;;;;12.33;100.00;97070.78;5054692;28;20041;-61
2021/09/29 04:46:16;;;;;;;9.60;4.07;;;;;;;12.36;100.00;97072.78;5050850;28;20474;-62
2021/09/29 04:49:02;;;;;;;9.73;4.43;;;;;;;12.33;100.00;97081.75;5052847;28;20048;-60
2021/09/29 04:51:48;;;;;;;7.43;3.95;;;;;;;12.34;100.00;97080.59;5050612;28;20048;-61
2021/09/29 04:54:34;;;;;;;7.78;4.22;;;;;;;12.32;100.00;97082.16;5045790;28;20056;-63
2021/09/29 04:57:20;;;;;;;9.77;3.92;;;;;;;12.39;100.00;97082.25;5050244;28;20048;-61
2021/09/29 05:00:06;;;;;;;7.53;3.35;;;;;;;12.45;100.00;97089.00;5042765;28;20040;-61
2021/09/29 05:02:52;;;;;;;6.38;2.90;;;;;;;12.40;100.00;97086.56;5053273;28;20446;-63
2021/09/29 05:05:38;;;;;;;4.15;2.90;;;;;;;12.41;100.00;97088.94;5041365;28;20255;-61
2021/09/29 05:08:25;;;;;;;4.07;2.78;;;;;;;12.48;100.00;97091.03;5041215;28;20156;-61
2021/09/29 05:11:17;;;;;;;4.55;2.10;;;;;;;12.57;100.00;97096.25;5041512;28;20041;-61
2021/09/29 05:14:03;;;;;;;5.82;2.40;;;;;;;12.50;100.00;97096.16;5051997;28;20048;-60
2021/09/29 05:16:48;;;;;;;8.13;3.10;;;;;;;12.50;100.00;97101.66;5052728;28;20064;-63
2021/09/29 05:19:34;;;;;;;5.63;2.30;;;;;;;12.48;100.00;97102.00;5048441;28;20051;-63
2021/09/29 05:22:20;;;;;;;3.90;2.80;;;;;;;12.50;100.00;97105.19;5026446;28;20075;-62
2021/09/29 05:25:06;;;;;;;5.45;2.42;;;;;;;12.52;100.00;97100.09;5040089;28;20052;-63
2021/09/29 05:27:52;;;;;;;9.68;2.53;;;;;;;12.50;100.00;97104.41;5044573;28;20045;-62
2021/09/29 05:30:38;;;;;;;6.78;2.40;;;;;;;12.58;100.00;97109.59;5046603;28;20135;-61
2021/09/29 05:33:25;;;;;;;7.80;2.63;;;;;;;12.59;100.00;97097.47;5038087;28;20049;-61
2021/09/29 05:36:10;;;;;;;6.88;2.70;;;;;;;12.56;100.00;97111.16;5049899;28;20388;-60
2021/09/29 05:38:56;;;;;;;7.68;2.60;;;;;;;12.64;100.00;97107.34;5057654;28;20045;-60
2021/09/29 05:41:42;;;;;;;6.60;1.88;;;;;;;12.61;100.00;97111.63;5054041;28;20732;-60
2021/09/29 05:44:28;;;;;;;4.85;2.42;;;;;;;12.62;100.00;97115.16;5044988;28;20083;-61
2021/09/29 05:47:14;;;;;;;8.48;3.03;;;;;;;12.61;100.00;97116.34;5034956;28;20094;-59
2021/09/29 05:49:59;;;;;;;5.75;2.10;;;;;;;12.76;100.00;97117.31;5045741;28;20040;-62
2021/09/29 05:52:45;;;;;;;7.88;2.95;;;;;;;12.67;100.00;97117.59;5052614;28;20042;-62
2021/09/29 05:55:31;;;;;;;5.50;2.08;;;;;;;12.61;100.00;97119.88;5044572;28;20040;-61
2021/09/29 05:58:16;;;;;;;3.10;1.60;;;;;;;12.68;100.00;97118.41;5037842;28;20141;-60
2021/09/29 06:01:03;;;;;;;5.50;1.42;;;;;;;12.66;100.00;97124.28;5041369;28;20064;-60
2021/09/29 06:03:48;;;;;;;4.93;1.75;;;;;;;12.83;100.00;97122.94;5054330;28;20040;-63
2021/09/29 06:06:34;;;;;;;4.25;1.65;;;;;;;12.76;100.00;97125.56;5052507;28;20033;-62
2021/09/29 06:09:20;;;;;;;2.85;1.60;;;;;;;12.80;100.00;97124.47;5038680;28;20434;-61
2021/09/29 06:12:07;;;;;;;4.35;1.30;;;;;;;12.82;100.00;97126.84;5047113;28;20047;-62
2021/09/29 06:14:54;;;;;;;3.10;2.10;;;;;;;12.83;100.00;97133.94;5045733;28;20716;-63
2021/09/29 06:17:42;;;;;;;4.32;1.50;;;;;;;12.79;100.00;97133.09;5043575;28;20110;-60
2021/09/29 06:20:31;;;;;;;4.22;1.40;;;;;;;12.80;100.00;97131.91;5050168;28;20079;-60
2021/09/29 06:23:20;;;;;;;5.57;1.63;;;;;;;12.83;100.00;97133.94;5028756;28;20055;-62
2021/09/29 06:26:07;;;;;;;4.43;1.58;;;;;;;12.91;100.00;97135.63;5042018;28;20250;-61
2021/09/29 06:28:53;;;;;;;3.70;1.50;;;;;;;12.97;100.00;97142.38;5047096;28;20048;-61
2021/09/29 06:31:39;;;;;;;5.47;1.17;;;;;;;13.07;100.00;97143.69;5049274;28;20048;-62
2021/09/29 06:34:25;;;;;;;4.97;1.90;;;;;;;13.10;100.00;97147.66;5046003;28;20894;-62
2021/09/29 06:37:11;;;;;;;4.28;1.45;;;;;;;13.24;100.00;97141.56;5037262;28;20047;-63
2021/09/29 06:39:56;;;;;;;4.05;1.70;;;;;;;13.25;100.00;97151.38;5054510;28;20052;-63
2021/09/29 06:42:43;;;;;;;2.15;1.30;;;;;;;13.24;100.00;97145.09;5051017;28;20073;-62
2021/09/29 06:45:28;;;;;;;3.08;1.40;;;;;;;13.30;100.00;97157.34;5044324;28;20654;-62
2021/09/29 06:48:16;;;;;;;6.18;1.38;;;;;;;13.46;100.00;97148.94;5035491;28;20067;-62
2021/09/29 06:51:01;;;;;;;8.68;1.10;;;;;;;13.49;100.00;97152.91;5053385;28;20033;-61
2021/09/29 06:53:47;;;;;;;5.35;1.63;;;;;;;13.36;100.00;97157.84;5051425;28;20041;-62
2021/09/29 06:56:33;;;;;;;5.93;1.27;;;;;;;13.50;99.36;97155.25;5042026;28;20051;-62
2021/09/29 06:59:18;;;;;;;4.63;1.33;;;;;;;13.56;100.00;97164.78;5045551;28;20048;-60
2021/09/29 07:02:04;;;;;;;4.35;1.33;;;;;;;13.69;100.00;97170.81;5041652;28;20040;-60
2021/09/29 07:04:50;;;;;;;3.40;1.10;;;;;;;13.76;100.00;97167.38;5052626;28;20673;-62
2021/09/29 07:07:36;;;;;;;3.97;1.48;;;;;;;13.82;99.36;97163.09;5051765;28;20055;-61
2021/09/29 07:10:22;;;;;;;2.30;1.35;;;;;;;13.67;98.67;97159.41;5036713;28;21862;-61
2021/09/29 07:13:10;;;;;;;5.50;1.40;;;;;;;13.67;99.80;97169.63;5040741;28;20044;-62
2021/09/29 07:15:55;;;;;;;7.40;1.55;;;;;;;13.70;100.00;97166.09;5041091;28;20052;-61
2021/09/29 07:18:42;;;;;;;11.20;1.92;;;;;;;13.71;100.00;97174.00;5049630;28;20301;-63
2021/09/29 07:21:28;;;;;;;5.55;1.30;;;;;;;13.75;99.44;97174.03;5032518;28;20374;-61
2021/09/29 07:24:13;;;;;;;5.65;1.45;;;;;;;13.72;100.00;97180.28;5046038;28;20050;-61
2021/09/29 07:26:59;;;;;;;2.70;1.40;;;;;;;13.80;99.53;97173.69;5042440;28;20060;-62
2021/09/29 07:29:45;;;;;;;3.38;1.48;;;;;;;13.91;99.54;97176.56;5050814;28;20040;-61
2021/09/29 07:32:31;;;;;;;4.05;1.50;;;;;;;13.91;99.46;97176.56;5051640;28;20138;-62
2021/09/29 07:35:18;;;;;;;4.90;1.50;;;;;;;14.11;100.00;97179.94;5035114;28;20581;-61
2021/09/29 07:38:04;;;;;;;4.35;1.73;;;;;;;14.24;99.53;97178.50;5036049;28;20136;-61
2021/09/29 07:40:49;;;;;;;5.93;2.05;;;;;;;14.23;99.49;97176.13;5050706;28;20076;-61
2021/09/29 07:43:35;;;;;;;6.95;1.90;;;;;;;14.36;100.00;97177.41;5043041;28;20459;-63
2021/09/29 07:46:21;;;;;;;5.88;2.15;;;;;;;14.54;97.88;97181.09;5044645;28;20044;-62
2021/09/29 07:49:07;;;;;;;3.13;1.45;;;;;;;14.52;99.04;97174.41;5049422;28;20525;-63
2021/09/29 07:51:52;;;;;;;7.90;2.08;;;;;;;14.62;99.22;97186.72;5052872;28;20047;-63
2021/09/29 07:54:38;;;;;;;7.28;2.40;;;;;;;14.96;99.56;97172.78;5047035;28;20525;-61
2021/09/29 07:57:24;;;;;;;9.88;2.97;;;;;;;15.62;94.18;97173.53;5047656;28;20561;-62
2021/09/29 08:00:12;;;;;;;7.25;3.00;;;;;;;15.97;95.74;97172.13;5046541;28;20143;-63
2021/09/29 08:02:58;;;;;;;6.00;2.75;;;;;;;17.23;84.22;97177.66;5047396;28;20055;-63
2021/09/29 08:05:44;;;;;;;7.18;3.00;;;;;;;17.29;84.89;97175.31;5042554;28;20044;-61
2021/09/29 08:08:30;;;;;;;5.18;2.42;;;;;;;17.36;81.92;97183.59;5042490;28;20072;-61
2021/09/29 08:11:16;;;;;;;6.68;2.30;;;;;;;17.02;82.42;97183.28;5040451;28;20388;-63
2021/09/29 08:14:02;;;;;;;4.20;1.77;;;;;;;17.38;77.75;97179.22;5051845;28;20044;-59
2021/09/29 08:16:48;;;;;;;5.50;2.25;;;;;;;17.14;82.74;97191.94;5053520;28;20044;-62
2021/09/29 08:19:35;;;;;;;4.72;1.80;;;;;;;17.53;78.85;97191.03;5052069;28;20040;-62
2021/09/29 08:22:21;;;;;;;5.80;1.73;;;;;;;17.45;83.57;97186.72;5040110;28;20126;-61
2021/09/29 08:26:28;;;;;;;7.68;2.13;;;;;;;17.86;80.15;97191.75;5032820;28;20051;-61
2021/09/29 08:31:26;;;;;;;5.10;1.90;;;;;;;18.67;71.54;97190.84;5044698;28;20117;-62
2021/09/29 08:34:16;;;;;;;3.38;1.63;;;;;;;18.59;73.50;97194.88;5048635;28;20093;-60
2021/09/29 08:37:52;;;;;;;7.53;2.60;;;;;;;18.98;72.58;97185.44;5049754;28;20417;-59
2021/09/29 08:43:15;;;;;;;3.40;1.60;;;;;;;20.24;63.40;97182.03;5051666;28;20056;-63
2021/09/29 08:46:15;;;;;;;5.18;1.83;;;;;;;20.22;66.20;97182.47;5054559;28;20048;-62
2021/09/29 08:49:15;;;;;;;3.78;1.75;;;;;;;20.51;62.38;97182.03;5051846;28;20135;-63
2021/09/29 09:16:50;;;;;;;2.85;0.90;;;;;;;20.08;61.09;97181.84;5049852;28;20040;-62
2021/09/29 09:19:36;;;;;;;3.78;1.38;;;;;;;20.67;58.58;97183.41;5050506;28;20041;-60
2021/09/29 09:22:32;;;;;;;3.13;1.50;;;;;;;20.12;58.48;97177.81;5044401;28;20891;-63
2021/09/29 09:25:35;;;;;;;3.67;1.00;;;;;;;20.01;60.00;97182.75;5048231;28;20057;-62
2021/09/29 09:28:26;;;;;;;2.75;1.35;;;;;;;20.16;58.51;97175.78;5043224;28;20051;-63
2021/09/29 09:31:14;;;;;;;4.43;1.10;;;;;;;20.24;59.00;97166.13;5044916;28;20040;-62
2021/09/29 09:34:04;;;;;;;4.30;1.00;;;;;;;21.22;55.32;97164.56;5055561;28;20123;-61
2021/09/29 09:36:50;;;;;;;3.70;1.17;;;;;;;20.73;56.68;97173.38;5042591;28;20573;-61
2021/09/29 09:39:37;;;;;;;3.88;1.05;;;;;;;20.98;54.93;97170.94;5047847;28;20045;-61
2021/09/29 09:42:23;;;;;;;4.18;1.20;;;;;;;20.52;56.11;97169.69;5031546;28;20814;-61
2021/09/29 09:45:10;;;;;;;5.38;1.73;;;;;;;21.33;52.91;97165.16;5039937;28;20064;-60
2021/09/29 09:47:55;;;;;;;5.95;1.45;;;;;;;20.44;55.00;97171.03;5054793;28;20142;-62
2021/09/29 09:50:41;;;;;;;3.15;0.90;;;;;;;20.47;54.16;97167.38;5054474;28;20041;-60
2021/09/29 09:53:27;;;;;;;1.95;0.90;;;;;;;20.81;54.19;97167.28;5051790;28;20082;-63
2021/09/29 09:56:24;;;;;;;3.10;1.10;;;;;;;20.57;56.00;97160.88;5046606;28;20052;-63
2021/09/29 09:59:09;;;;;;;2.25;1.00;;;;;;;20.59;56.22;97158.44;5040692;28;20056;-61
2021/09/29 10:01:55;;;;;;;5.03;1.23;;;;;;;21.46;52.16;97154.97;5051985;28;20044;-61
2021/09/29 10:04:42;;;;;;;4.80;1.13;;;;;;;21.49;52.20;97154.13;5046040;28;20065;-62
2021/09/29 10:07:27;;;;;;;3.88;1.30;;;;;;;22.57;49.83;97148.22;5049068;28;20048;-62
2021/09/29 10:10:32;;;;;;;4.78;1.38;;;;;;;23.11;47.75;97146.91;5049497;28;20044;-61
2021/09/29 10:23:15;;;;;;;7.25;1.52;;;;;;;21.95;48.43;97132.84;5054300;28;20128;-63
2021/09/29 10:29:05;;;;;;;4.13;1.02;;;;;;;22.17;48.79;97131.59;5054453;28;20112;-63
2021/09/29 10:32:05;;;;;;;3.47;0.90;;;;;;;22.06;49.42;97126.28;5055126;28;20040;-62
2021/09/29 10:35:48;;;;;;;8.07;1.17;;;;;;;21.55;48.87;97120.97;5076317;23;20036;-65
2021/09/29 10:41:01;;;;;;;4.20;0.80;;;;;;;21.06;52.99;97132.63;5012851;28;20049;-65
2021/09/29 11:07:59;;;;;;;4.13;0.90;;;;;;;21.58;50.80;97118.09;4989029;28;20049;-65
2021/09/29 11:29:50;;;;;;;3.40;1.08;;;;;;;21.66;47.49;97112.38;4989728;28;20081;-65
2021/09/29 11:32:39;;;;;;;3.08;1.23;;;;;;;22.17;46.61;97101.69;4989431;28;20057;-63
2021/09/29 12:12:37;;;;;;;7.45;1.08;;;;;;;19.41;55.12;97080.28;4970427;28;20124;-65
2021/09/29 12:15:23;;;;;;;2.38;0.70;;;;;;;19.62;53.81;97072.84;4983298;28;21137;-66
2021/09/29 12:18:11;;;;;;;3.67;0.80;;;;;;;19.41;56.34;97069.16;4978648;28;20057;-64
2021/09/29 12:20:56;;;;;;;19.10;2.53;;;;;;;19.44;55.80;97071.09;4992235;28;20127;-64
2021/09/29 12:23:50;;;;;;;4.78;1.10;;;;;;;19.68;55.10;97060.88;4992269;28;20594;-65
2021/09/29 12:26:46;;;;;;;3.13;0.95;;;;;;;19.88;53.78;97064.97;4992491;28;20639;-66
2021/09/29 12:29:36;;;;;;;8.82;1.83;;;;;;;20.24;52.33;97065.25;4991960;28;20166;-65
2021/09/29 12:35:19;;;;;;;2.33;0.82;;;;;;;21.57;50.00;97055.22;4985264;28;20366;-67
2021/09/29 12:38:05;;;;;;;4.07;0.80;;;;;;;21.09;49.65;97056.59;4983875;28;20060;-65
2021/09/29 12:40:52;;;;;;;4.28;0.80;;;;;;;20.96;50.07;97050.88;4993760;28;20691;-65
2021/09/29 12:43:37;;;;;;;2.67;0.60;;;;;;;20.33;49.39;97051.56;4998365;28;20694;-66
2021/09/29 12:46:23;;;;;;;2.78;1.08;;;;;;;20.47;50.50;97055.31;4989062;28;20529;-65
2021/09/29 12:49:13;;;;;;;3.00;0.60;;;;;;;20.59;50.39;97047.13;4992035;28;20045;-66
2021/09/29 12:52:12;;;;;;;3.78;0.93;;;;;;;20.50;50.71;97048.91;4997820;28;20567;-66
2021/09/29 12:54:59;;;;;;;4.73;1.03;;;;;;;20.74;51.09;97049.69;4994823;28;20041;-66
2021/09/29 12:57:45;;;;;;;1.58;0.68;;;;;;;20.84;49.12;97045.16;4996926;28;20113;-65
2021/09/29 13:00:31;;;;;;;3.60;0.80;;;;;;;20.61;49.73;97050.31;4989842;28;20052;-65
2021/09/29 13:03:17;;;;;;;3.85;0.70;;;;;;;20.78;50.96;97050.44;4975218;28;20073;-65
2021/09/29 13:06:03;;;;;;;3.30;0.73;;;;;;;20.74;50.11;97041.34;4984263;28;20583;-65
2021/09/29 13:08:49;;;;;;;3.30;0.93;;;;;;;20.61;51.27;97049.53;4997704;28;20056;-66
2021/09/29 13:11:35;;;;;;;2.33;0.77;;;;;;;20.42;51.55;97051.81;4973275;28;20039;-65
2021/09/29 13:14:21;;;;;;;2.35;0.80;;;;;;;20.54;52.61;97050.41;4990746;28;20042;-64
2021/09/29 13:17:07;;;;;;;9.63;1.00;;;;;;;20.55;51.19;97048.44;4989472;28;20158;-66
2021/09/29 13:20:01;;;;;;;2.60;0.65;;;;;;;20.74;51.42;97053.28;4995635;28;20042;-65
2021/09/29 13:22:53;;;;;;;4.18;1.15;;;;;;;20.89;50.07;97059.34;4992026;28;20107;-65
2021/09/29 13:37:46;;;;;;;2.45;0.80;;;;;;;20.73;51.91;97062.81;5010726;28;20113;-65
2021/09/29 13:40:32;;;;;;;2.58;0.70;;;;;;;20.61;51.91;97058.66;5000407;28;20042;-64
2021/09/29 13:43:18;;;;;;;2.85;0.70;;;;;;;20.30;51.06;97063.53;4991119;28;20707;-65
2021/09/29 13:46:04;;;;;;;2.17;0.63;;;;;;;20.40;51.15;97070.94;4992644;28;20139;-66
2021/09/29 13:48:52;;;;;;;5.57;1.23;;;;;;;20.55;52.44;97065.91;4992155;28;20042;-64
2021/09/29 13:51:39;;;;;;;3.90;1.35;;;;;;;20.78;51.19;97067.91;4979793;28;20445;-63
2021/09/29 13:54:26;;;;;;;4.15;0.88;;;;;;;20.53;51.66;97059.97;4986536;28;20068;-65
2021/09/29 13:57:22;;;;;;;6.68;0.77;;;;;;;20.41;52.70;97064.13;4985646;28;20072;-65
2021/09/29 14:03:29;;;;;;;4.60;1.00;;;;;;;19.97;53.89;97063.25;4986331;28;20076;-64
2021/09/29 14:30:33;;;;;;;2.75;0.65;;;;;;;20.10;54.56;97057.13;4993380;28;20077;-64
2021/09/29 14:33:34;;;;;;;1.88;0.70;;;;;;;19.84;54.44;97054.72;4989402;28;20046;-64
2021/09/29 14:36:20;;;;;;;3.08;0.90;;;;;;;19.81;53.12;97058.34;4985138;28;20506;-64
2021/09/29 14:39:05;;;;;;;5.78;1.38;;;;;;;19.65;52.92;97053.34;4987125;28;20058;-65
2021/09/29 14:41:52;;;;;;;6.97;0.95;;;;;;;19.91;53.54;97053.81;4991527;28;20392;-63
2021/09/29 14:44:39;;;;;;;2.72;0.70;;;;;;;20.18;53.11;97059.34;4992878;28;20030;-64
2021/09/29 14:47:24;;;;;;;1.95;0.63;;;;;;;19.99;52.95;97060.84;4990402;28;20080;-65
2021/09/29 14:50:10;;;;;;;5.50;0.68;;;;;;;19.90;53.54;97057.81;4988428;28;20053;-64
2021/09/29 14:52:58;;;;;;;2.78;0.70;;;;;;;19.92;54.43;97060.94;4992900;28;20080;-65
2021/09/29 14:55:44;;;;;;;3.58;0.60;;;;;;;19.93;54.22;97076.41;4992065;28;20068;-65
2021/09/29 14:58:30;;;;;;;4.95;1.33;;;;;;;19.95;54.29;97078.78;4994355;28;20615;-65
2021/09/29 15:01:16;;;;;;;5.20;1.00;;;;;;;19.62;54.84;97075.63;4988913;28;20045;-65
2021/09/29 15:04:03;;;;;;;2.72;0.88;;;;;;;19.60;55.52;97081.59;4993810;28;20042;-65
2021/09/29 15:06:49;;;;;;;3.63;0.60;;;;;;;19.26;54.83;97087.97;4994768;28;20136;-64
2021/09/29 15:09:35;;;;;;;4.13;0.90;;;;;;;19.19;55.70;97081.72;4990692;28;20050;-66
2021/09/29 15:12:21;;;;;;;1.40;0.70;;;;;;;18.98;55.63;97085.53;4972171;28;20034;-65
2021/09/29 15:18:08;;;;;;;3.17;0.80;;;;;;;18.74;56.55;97093.66;4992893;28;20153;-65
2021/09/29 15:47:58;;;;;;;2.78;0.52;;;;;;;17.41;60.73;97165.75;4994006;28;20042;-65
2021/09/29 15:54:07;;;;;;;3.63;0.52;;;;;;;17.02;62.59;97183.28;4992098;28;20414;-65
2021/09/29 16:03:07;;;;;;;3.55;0.60;;;;;;;16.62;64.08;97205.38;4985398;28;20129;-65
2021/09/29 16:35:42;;;;;;;1.40;0.40;;;;;;;15.25;76.84;97262.84;4997609;28;20112;-64
2021/09/29 16:38:28;;;;;;;1.15;0.40;;;;;;;15.07;81.54;97261.91;4990794;28;20144;-63
2021/09/29 16:41:15;;;;;;;1.45;0.40;;;;;;;15.00;82.14;97270.94;4991684;28;20091;-64
2021/09/29 16:44:02;;;;;;;1.35;0.40;;;;;;;14.87;84.06;97261.38;4997019;28;20049;-65
2021/09/29 16:46:49;;;;;;;3.33;0.32;;;;;;;15.01;84.16;97261.47;4978900;28;20556;-64
2021/09/29 16:49:36;;;;;;;0.30;0.30;;;;;;;15.03;85.24;97264.66;4990282;28;20053;-64
2021/09/29 16:55:12;;;;;;;0.50;0.50;;;;;;;14.99;86.24;97269.34;4980605;28;20112;-65
2021/09/29 16:58:09;;;;;;;1.05;0.30;;;;;;;14.92;87.03;97274.81;4984625;28;20064;-64
2021/09/29 17:03:42;;;;;;;0.82;0.50;;;;;;;14.52;87.54;97290.16;4994658;28;20100;-64
2021/09/29 17:06:27;;;;;;;1.77;0.40;;;;;;;14.46;88.15;97292.47;4992994;28;20131;-64